createdAt,value
2019-02-10T00:00:54.951Z,9.30
2019-02-10T00:03:23.442Z,9.20
2019-02-10T00:05:52.038Z,9.20
2019-02-10T00:08:20.676Z,9.20
2019-02-10T00:10:49.305Z,9.20
2019-02-10T00:13:31.752Z,9.20
2019-02-10T00:16:02.647Z,9.20
2019-02-10T00:18:31.358Z,9.20
2019-02-10T00:20:59.896Z,9.20
2019-02-10T00:23:28.461Z,9.20
2019-02-10T00:25:57.036Z,9.20
2019-02-10T00:28:25.588Z,9.20
2019-02-10T00:30:54.088Z,9.20
2019-02-10T00:33:22.568Z,9.10
2019-02-10T00:35:51.109Z,9.10
2019-02-10T00:38:19.623Z,9.10
2019-02-10T00:40:48.274Z,9.10
2019-02-10T00:43:16.755Z,9.10
2019-02-10T00:45:45.321Z,9.10
2019-02-10T00:48:13.875Z,9.10
2019-02-10T00:50:42.432Z,9.10
2019-02-10T00:53:10.930Z,9.10
2019-02-10T00:55:39.593Z,9.10
2019-02-10T00:58:08.511Z,9.00
2019-02-10T01:00:37.037Z,9.00
2019-02-10T01:03:05.523Z,9.00
2019-02-10T01:05:34.152Z,9.00
2019-02-10T01:08:02.716Z,9.00
2019-02-10T01:10:31.314Z,9.10
2019-02-10T01:12:59.883Z,9.00
2019-02-10T01:15:28.483Z,9.00
2019-02-10T01:17:57.069Z,9.00
2019-02-10T01:20:25.940Z,9.00
2019-02-10T01:22:54.485Z,9.00
2019-02-10T01:25:23.322Z,8.90
2019-02-10T01:27:51.982Z,8.90
2019-02-10T01:30:20.583Z,8.90
2019-02-10T01:32:49.096Z,8.90
2019-02-10T01:35:17.619Z,8.90
2019-02-10T01:37:46.084Z,8.90
2019-02-10T01:40:14.759Z,8.90
2019-02-10T01:42:43.285Z,8.90
2019-02-10T01:45:12.648Z,8.90
2019-02-10T01:47:41.269Z,8.90
2019-02-10T01:50:11.044Z,8.90
2019-02-10T01:52:39.696Z,8.90
2019-02-10T01:55:12.866Z,8.90
2019-02-10T01:57:41.954Z,8.80
2019-02-10T02:00:13.174Z,8.80
2019-02-10T02:02:41.812Z,8.80
2019-02-10T02:05:10.524Z,8.80
2019-02-10T02:07:39.275Z,8.80
2019-02-10T02:10:15.475Z,8.80
2019-02-10T02:12:44.028Z,8.80
2019-02-10T02:15:14.349Z,8.80
2019-02-10T02:17:43.018Z,8.80
2019-02-10T02:20:13.103Z,8.80
2019-02-10T02:22:41.745Z,8.80
2019-02-10T02:25:12.643Z,8.80
2019-02-10T02:27:41.311Z,8.80
2019-02-10T02:30:16.604Z,8.70
2019-02-10T02:32:45.151Z,8.80
2019-02-10T02:35:13.665Z,8.70
2019-02-10T02:37:42.236Z,8.70
2019-02-10T02:40:11.692Z,8.60
2019-02-10T02:42:40.791Z,8.60
2019-02-10T02:45:11.469Z,8.50
2019-02-10T02:47:40.106Z,8.50
2019-02-10T02:50:12.759Z,8.50
2019-02-10T02:52:41.291Z,8.50
2019-02-10T02:55:10.416Z,8.50
2019-02-10T02:57:39.054Z,8.50
2019-02-10T03:00:11.383Z,8.50
2019-02-10T03:02:40.242Z,8.50
2019-02-10T03:05:10.162Z,8.40
2019-02-10T03:07:38.841Z,8.30
2019-02-10T03:10:08.534Z,8.30
2019-02-10T03:12:37.076Z,8.30
2019-02-10T03:15:07.835Z,8.40
2019-02-10T03:17:36.712Z,8.30
2019-02-10T03:20:11.248Z,8.30
2019-02-10T03:22:39.746Z,8.30
2019-02-10T03:25:08.555Z,8.30
2019-02-10T03:27:37.547Z,8.30
2019-02-10T03:30:10.772Z,8.30
2019-02-10T03:32:39.563Z,8.30
2019-02-10T03:35:09.407Z,8.30
2019-02-10T03:37:37.941Z,8.30
2019-02-10T03:40:08.061Z,8.30
2019-02-10T03:42:36.583Z,8.20
2019-02-10T03:45:07.282Z,8.20
2019-02-10T03:47:36.090Z,8.20
2019-02-10T03:50:06.944Z,8.10
2019-02-10T03:52:35.552Z,8.10
2019-02-10T03:55:05.362Z,8.10
2019-02-10T03:57:34.009Z,8.10
2019-02-10T04:00:02.963Z,8.10
2019-02-10T04:02:32.018Z,8.10
2019-02-10T04:05:00.632Z,8.10
2019-02-10T04:07:35.861Z,8.10
2019-02-10T04:09:59.532Z,8.00
2019-02-10T04:12:28.142Z,7.90
2019-02-10T04:14:56.642Z,7.80
2019-02-10T04:17:25.176Z,7.80
2019-02-10T04:19:53.675Z,7.80
2019-02-10T04:22:22.293Z,7.80
2019-02-10T04:24:51.239Z,7.80
2019-02-10T04:27:19.788Z,7.80
2019-02-10T04:29:48.371Z,7.70
2019-02-10T04:32:17.021Z,7.70
2019-02-10T04:34:45.590Z,7.70
2019-02-10T04:37:14.383Z,7.70
2019-02-10T04:39:43.176Z,7.70
2019-02-10T04:42:11.690Z,7.70
2019-02-10T04:44:40.135Z,7.70
2019-02-10T04:47:08.671Z,7.70
2019-02-10T04:49:37.264Z,7.70
2019-02-10T04:52:05.863Z,7.70
2019-02-10T04:54:34.394Z,7.60
2019-02-10T04:57:03.145Z,7.60
2019-02-10T04:59:31.890Z,7.60
2019-02-10T05:02:00.415Z,7.60
2019-02-10T05:04:28.954Z,7.60
2019-02-10T05:06:57.737Z,7.60
2019-02-10T05:09:26.224Z,7.60
2019-02-10T05:11:54.710Z,7.60
2019-02-10T05:14:23.428Z,7.70
2019-02-10T05:16:51.895Z,7.70
2019-02-10T05:19:20.398Z,7.80
2019-02-10T05:21:49.189Z,7.80
2019-02-10T05:24:17.721Z,7.80
2019-02-10T05:26:46.152Z,7.80
2019-02-10T05:29:14.654Z,7.80
2019-02-10T05:31:43.090Z,7.80
2019-02-10T05:34:11.545Z,7.80
2019-02-10T05:36:40.003Z,7.70
2019-02-10T05:39:08.743Z,7.70
2019-02-10T05:41:37.204Z,7.70
2019-02-10T05:44:07.697Z,7.70
2019-02-10T05:46:36.206Z,7.60
2019-02-10T05:49:04.756Z,7.70
2019-02-10T05:51:33.462Z,7.70
2019-02-10T05:54:02.205Z,7.70
2019-02-10T05:56:30.705Z,7.60
2019-02-10T05:58:59.178Z,7.60
2019-02-10T06:02:03.159Z,7.70
2019-02-10T06:04:34.299Z,7.70
2019-02-10T06:07:05.751Z,7.80
2019-02-10T06:09:34.308Z,7.70
2019-02-10T06:12:02.728Z,7.80
2019-02-10T06:14:31.197Z,7.80
2019-02-10T06:16:59.640Z,7.80
2019-02-10T06:19:28.113Z,8.00
2019-02-10T06:21:56.589Z,8.00
2019-02-10T06:24:25.148Z,8.00
2019-02-10T06:26:53.834Z,8.00
2019-02-10T06:29:22.290Z,8.00
2019-02-10T06:31:51.096Z,8.00
2019-02-10T06:34:19.563Z,8.10
2019-02-10T06:36:48.285Z,8.10
2019-02-10T06:39:16.828Z,8.10
2019-02-10T06:41:45.377Z,8.10
2019-02-10T06:44:14.080Z,8.10
2019-02-10T06:46:42.501Z,8.20
2019-02-10T06:49:11.203Z,8.20
2019-02-10T06:51:39.891Z,8.20
2019-02-10T06:54:08.416Z,8.20
2019-02-10T06:56:36.838Z,8.10
2019-02-10T06:59:06.961Z,8.20
2019-02-10T07:01:37.087Z,8.20
2019-02-10T07:04:09.004Z,8.20
2019-02-10T07:06:37.509Z,8.20
2019-02-10T07:09:06.591Z,8.20
2019-02-10T07:11:35.358Z,8.30
2019-02-10T07:14:04.119Z,8.30
2019-02-10T07:16:35.261Z,8.30
2019-02-10T07:19:40.008Z,8.30
2019-02-10T07:22:34.055Z,8.30
2019-02-10T07:25:17.650Z,8.30
2019-02-10T07:28:04.402Z,8.30
2019-02-10T07:30:41.523Z,8.30
2019-02-10T07:33:24.684Z,8.40
2019-02-10T07:36:07.294Z,8.40
2019-02-10T07:38:44.224Z,8.50
2019-02-10T07:41:39.362Z,8.50
2019-02-10T07:44:22.710Z,8.50
2019-02-10T07:47:25.683Z,8.50
2019-02-10T07:50:03.114Z,8.60
2019-02-10T07:52:55.537Z,8.60
2019-02-10T07:55:51.120Z,8.70
2019-02-10T07:58:25.201Z,8.70
2019-02-10T08:01:05.699Z,8.70
2019-02-10T08:03:53.697Z,8.70
2019-02-10T08:06:42.774Z,8.80
2019-02-10T08:09:28.935Z,8.80
2019-02-10T08:12:06.382Z,8.80
2019-02-10T08:14:52.943Z,8.90
2019-02-10T08:17:29.966Z,8.90
2019-02-10T08:20:01.509Z,8.90
2019-02-10T08:22:56.509Z,9.00
2019-02-10T08:25:30.697Z,9.00
2019-02-10T08:28:20.221Z,8.90
2019-02-10T08:31:03.709Z,9.00
2019-02-10T08:33:41.005Z,9.00
2019-02-10T08:36:12.520Z,9.00
2019-02-10T08:38:54.285Z,9.00
2019-02-10T08:41:34.965Z,9.10
2019-02-10T08:44:28.420Z,9.20
2019-02-10T08:47:08.626Z,9.20
2019-02-10T08:49:56.230Z,9.20
2019-02-10T08:52:27.734Z,9.30
2019-02-10T08:54:56.856Z,9.30
2019-02-10T08:57:25.367Z,9.30
2019-02-10T08:59:53.890Z,9.40
2019-02-10T09:02:22.574Z,9.40
2019-02-10T09:04:51.175Z,9.40
2019-02-10T09:07:19.750Z,9.50
2019-02-10T09:09:48.542Z,9.60
2019-02-10T09:12:17.279Z,9.70
2019-02-10T09:14:45.798Z,9.70
2019-02-10T09:17:14.223Z,9.70
2019-02-10T09:19:42.683Z,9.70
2019-02-10T09:22:11.210Z,9.70
2019-02-10T09:24:39.678Z,9.70
2019-02-10T09:27:08.154Z,9.80
2019-02-10T09:29:36.582Z,9.80
2019-02-10T09:32:05.030Z,9.90
2019-02-10T09:34:33.570Z,9.80
2019-02-10T09:37:02.009Z,9.80
2019-02-10T09:39:30.571Z,9.80
2019-02-10T09:41:59.079Z,9.80
2019-02-10T09:44:27.870Z,9.90
2019-02-10T09:46:56.349Z,9.90
2019-02-10T09:49:24.862Z,9.80
2019-02-10T09:51:53.397Z,9.80
2019-02-10T09:54:21.848Z,9.80
2019-02-10T09:56:50.743Z,9.80
2019-02-10T09:59:19.291Z,9.80
2019-02-10T10:01:48.166Z,9.80
2019-02-10T10:04:16.614Z,9.90
2019-02-10T10:06:45.125Z,9.90
2019-02-10T10:09:18.994Z,9.80
2019-02-10T10:11:43.724Z,9.90
2019-02-10T10:14:12.160Z,9.80
2019-02-10T10:16:40.610Z,9.80
2019-02-10T10:19:09.398Z,9.80
2019-02-10T10:21:37.852Z,9.90
2019-02-10T10:24:07.818Z,9.90
2019-02-10T10:26:36.327Z,9.80
2019-02-10T10:29:04.787Z,9.90
2019-02-10T10:31:33.226Z,9.80
2019-02-10T10:34:01.663Z,9.80
2019-02-10T10:36:30.129Z,9.80
2019-02-10T10:38:58.586Z,9.90
2019-02-10T10:41:27.113Z,9.80
2019-02-10T10:43:55.818Z,9.80
2019-02-10T10:46:24.269Z,9.80
2019-02-10T10:48:52.687Z,9.80
2019-02-10T10:51:21.142Z,9.90
2019-02-10T10:53:49.614Z,9.90
2019-02-10T10:56:18.128Z,9.90
2019-02-10T10:58:46.722Z,9.90
2019-02-10T11:01:15.254Z,9.90
2019-02-10T11:03:43.722Z,9.90
2019-02-10T11:06:12.293Z,9.90
2019-02-10T11:08:40.832Z,9.90
2019-02-10T11:11:09.758Z,9.90
2019-02-10T11:13:38.613Z,9.90
2019-02-10T11:16:07.178Z,9.90
2019-02-10T11:18:35.716Z,9.90
2019-02-10T11:21:04.281Z,9.90
2019-02-10T11:23:32.805Z,9.90
2019-02-10T11:26:01.327Z,9.80
2019-02-10T11:28:29.865Z,9.80
2019-02-10T11:30:58.382Z,9.80
2019-02-10T11:33:26.811Z,9.80
2019-02-10T11:35:55.577Z,9.90
2019-02-10T11:38:24.043Z,9.90
2019-02-10T11:40:52.803Z,9.90
2019-02-10T11:43:21.251Z,9.90
2019-02-10T11:45:49.777Z,9.90
2019-02-10T11:48:18.590Z,9.80
2019-02-10T11:50:47.387Z,10.10
2019-02-10T11:53:15.864Z,9.90
2019-02-10T11:55:44.331Z,9.90
2019-02-10T11:58:12.889Z,9.90
2019-02-10T12:00:41.406Z,9.90
2019-02-10T12:03:10.237Z,9.90
2019-02-10T12:05:38.715Z,9.90
2019-02-10T12:08:07.186Z,9.90
2019-02-10T12:10:35.646Z,9.90
2019-02-10T12:13:04.198Z,9.90
2019-02-10T12:15:32.786Z,9.90
2019-02-10T12:18:01.424Z,9.90
2019-02-10T12:20:30.010Z,9.90
2019-02-10T12:22:58.548Z,10.00
2019-02-10T12:25:27.324Z,10.00
2019-02-10T12:27:55.853Z,10.00
2019-02-10T12:30:24.628Z,9.90
2019-02-10T12:32:53.278Z,9.90
2019-02-10T12:35:22.169Z,9.80
2019-02-10T12:37:50.952Z,9.80
2019-02-10T12:40:19.521Z,9.80
2019-02-10T12:42:48.053Z,9.80
2019-02-10T12:45:16.520Z,9.90
2019-02-10T12:47:45.038Z,9.90
2019-02-10T12:50:14.463Z,9.80
2019-02-10T12:52:42.998Z,9.80
2019-02-10T12:55:12.664Z,9.80
2019-02-10T12:57:41.274Z,9.80
2019-02-10T13:00:17.180Z,9.80
2019-02-10T13:02:45.750Z,9.70
2019-02-10T13:05:14.302Z,9.60
2019-02-10T13:07:42.859Z,9.60
2019-02-10T13:10:12.949Z,9.60
2019-02-10T13:12:41.424Z,9.60
2019-02-10T13:15:11.336Z,9.60
2019-02-10T13:17:39.957Z,9.60
2019-02-10T13:20:10.847Z,9.50
2019-02-10T13:22:39.374Z,9.50
2019-02-10T13:25:10.545Z,9.50
2019-02-10T13:27:39.073Z,9.50
2019-02-10T13:30:17.666Z,9.50
2019-02-10T13:32:46.285Z,9.50
2019-02-10T13:35:15.218Z,9.40
2019-02-10T13:37:43.901Z,9.50
2019-02-10T13:40:23.016Z,9.50
2019-02-10T13:42:51.624Z,9.50
2019-02-10T13:45:20.480Z,9.60
2019-02-10T13:47:48.986Z,9.60
2019-02-10T13:50:18.475Z,9.60
2019-02-10T13:52:47.142Z,9.50
2019-02-10T13:55:16.848Z,9.50
2019-02-10T13:57:45.397Z,9.50
2019-02-10T14:00:19.677Z,9.60
2019-02-10T14:02:48.500Z,9.60
2019-02-10T14:05:17.240Z,9.60
2019-02-10T14:07:45.922Z,9.60
2019-02-10T14:10:24.937Z,9.60
2019-02-10T14:12:46.761Z,9.60
2019-02-10T14:15:19.363Z,9.60
2019-02-10T14:17:48.074Z,9.60
2019-02-10T14:20:17.869Z,9.60
2019-02-10T14:22:46.514Z,9.60
2019-02-10T14:25:15.142Z,9.50
2019-02-10T14:27:44.004Z,9.50
2019-02-10T14:30:22.079Z,9.50
2019-02-10T14:32:51.048Z,9.50
2019-02-10T14:35:19.580Z,9.50
2019-02-10T14:37:48.463Z,9.40
2019-02-10T14:40:17.044Z,9.40
2019-02-10T14:42:45.918Z,9.30
2019-02-10T14:45:15.527Z,9.30
2019-02-10T14:47:44.428Z,9.20
2019-02-10T14:50:18.031Z,9.20
2019-02-10T14:52:46.552Z,9.10
2019-02-10T14:55:15.250Z,9.10
2019-02-10T14:57:43.915Z,9.10
2019-02-10T15:00:15.140Z,9.20
2019-02-10T15:02:43.903Z,9.10
2019-02-10T15:05:12.445Z,9.10
2019-02-10T15:07:41.269Z,9.10
2019-02-10T15:10:17.875Z,9.10
2019-02-10T15:12:46.749Z,9.10
2019-02-10T15:15:15.358Z,9.10
2019-02-10T15:17:43.940Z,9.10
2019-02-10T15:20:13.358Z,9.10
2019-02-10T15:22:42.356Z,9.10
2019-02-10T15:25:12.266Z,9.10
2019-02-10T15:27:41.209Z,9.20
2019-02-10T15:30:14.191Z,9.20
2019-02-10T15:32:42.729Z,9.20
2019-02-10T15:35:11.394Z,9.20
2019-02-10T15:37:40.337Z,9.20
2019-02-10T15:40:10.634Z,9.20
2019-02-10T15:42:39.301Z,9.20
2019-02-10T15:45:12.458Z,9.20
2019-02-10T15:47:41.073Z,9.20
2019-02-10T15:50:13.655Z,9.10
2019-02-10T15:52:42.220Z,9.10
2019-02-10T15:55:12.569Z,9.10
2019-02-10T15:57:41.374Z,9.00
2019-02-10T16:00:27.395Z,9.00
2019-02-10T16:02:56.190Z,9.10
2019-02-10T16:05:25.046Z,9.10
2019-02-10T16:07:53.565Z,9.00
2019-02-10T16:10:22.126Z,9.00
2019-02-10T16:12:50.931Z,9.00
2019-02-10T16:15:19.516Z,9.00
2019-02-10T16:17:48.020Z,8.90
2019-02-10T16:20:16.642Z,8.90
2019-02-10T16:22:45.184Z,8.80
2019-02-10T16:25:14.021Z,8.90
2019-02-10T16:27:42.686Z,8.80
2019-02-10T16:30:13.687Z,8.90
2019-02-10T16:32:49.541Z,8.90
2019-02-10T16:35:12.478Z,8.90
2019-02-10T16:37:41.139Z,8.80
2019-02-10T16:40:21.688Z,8.70
2019-02-10T16:42:50.190Z,8.70
2019-02-10T16:45:18.864Z,8.70
2019-02-10T16:47:47.372Z,8.70
2019-02-10T16:50:17.351Z,8.60
2019-02-10T16:52:45.805Z,8.50
2019-02-10T16:55:17.295Z,8.40
2019-02-10T16:57:45.741Z,8.40
2019-02-10T17:00:15.646Z,8.40
2019-02-10T17:02:44.363Z,8.20
2019-02-10T17:05:13.030Z,8.10
2019-02-10T17:07:41.527Z,8.00
2019-02-10T17:10:12.556Z,7.90
2019-02-10T17:12:40.999Z,7.80
2019-02-10T17:15:11.655Z,7.70
2019-02-10T17:17:40.403Z,7.60
2019-02-10T17:20:10.961Z,7.50
2019-02-10T17:22:39.671Z,7.40
2019-02-10T17:25:11.274Z,7.40
2019-02-10T17:27:39.718Z,7.30
2019-02-10T17:30:11.343Z,7.30
2019-02-10T17:32:40.066Z,7.20
2019-02-10T17:35:10.720Z,7.20
2019-02-10T17:37:39.175Z,7.10
2019-02-10T17:40:19.611Z,7.10
2019-02-10T17:42:48.085Z,6.90
2019-02-10T17:45:16.524Z,6.80
2019-02-10T17:47:44.972Z,6.70
2019-02-10T17:50:13.542Z,6.60
2019-02-10T17:52:42.053Z,6.50
2019-02-10T17:55:10.810Z,6.40
2019-02-10T17:57:39.284Z,6.40
2019-02-10T18:00:16.148Z,6.30
2019-02-10T18:02:44.583Z,6.30
2019-02-10T18:05:13.290Z,6.20
2019-02-10T18:07:42.131Z,6.10
2019-02-10T18:10:14.894Z,6.10
2019-02-10T18:12:43.635Z,6.10
2019-02-10T18:15:14.031Z,6.10
2019-02-10T18:17:44.393Z,6.10
2019-02-10T18:20:17.491Z,6.10
2019-02-10T18:22:47.599Z,6.10
2019-02-10T18:25:23.658Z,5.90
2019-02-10T18:28:02.998Z,5.90
2019-02-10T18:30:33.332Z,5.90
2019-02-10T18:33:09.121Z,5.90
2019-02-10T18:35:48.187Z,5.80
2019-02-10T18:38:18.302Z,5.80
2019-02-10T18:40:51.127Z,5.80
2019-02-10T18:43:33.303Z,5.80
2019-02-10T18:46:08.878Z,5.70
2019-02-10T18:48:38.968Z,5.70
2019-02-10T18:51:12.283Z,5.70
2019-02-10T18:53:51.320Z,5.80
2019-02-10T18:56:27.746Z,5.80
2019-02-10T18:59:00.822Z,5.70
2019-02-10T19:01:47.226Z,5.70
2019-02-10T19:04:33.143Z,5.70
2019-02-10T19:07:03.567Z,5.70
2019-02-10T19:09:34.033Z,5.80
2019-02-10T19:12:06.956Z,5.80
2019-02-10T19:14:46.122Z,5.80
2019-02-10T19:17:33.787Z,5.80
2019-02-10T19:20:06.838Z,5.80
2019-02-10T19:22:39.679Z,5.70
2019-02-10T19:25:09.961Z,5.70
2019-02-10T19:27:42.962Z,5.70
2019-02-10T19:30:13.213Z,5.70
2019-02-10T19:32:43.551Z,5.60
2019-02-10T19:35:22.811Z,5.60
2019-02-10T19:38:10.761Z,5.50
2019-02-10T19:40:43.594Z,5.50
2019-02-10T19:43:22.671Z,5.50
2019-02-10T19:46:01.646Z,5.40
2019-02-10T19:48:31.766Z,5.40
2019-02-10T19:51:01.823Z,5.50
2019-02-10T19:53:37.955Z,5.50
2019-02-10T19:56:08.090Z,5.50
2019-02-10T19:58:38.159Z,5.50
2019-02-10T20:01:23.025Z,5.50
2019-02-10T20:04:07.999Z,5.50
2019-02-10T20:06:38.374Z,5.60
2019-02-10T20:09:11.342Z,5.60
2019-02-10T20:11:44.698Z,5.50
2019-02-10T20:14:20.489Z,5.50
2019-02-10T20:16:53.329Z,5.50
2019-02-10T20:19:26.659Z,5.40
2019-02-10T20:22:05.636Z,5.50
2019-02-10T20:24:38.956Z,5.40
2019-02-10T20:27:17.766Z,5.40
2019-02-10T20:29:47.965Z,5.40
2019-02-10T20:32:26.804Z,5.40
2019-02-10T20:35:02.991Z,5.40
2019-02-10T20:37:33.064Z,5.50
2019-02-10T20:40:03.165Z,5.50
2019-02-10T20:42:33.500Z,5.50
2019-02-10T20:45:19.381Z,5.60
2019-02-10T20:47:49.744Z,5.60
2019-02-10T20:50:22.832Z,5.50
2019-02-10T20:52:55.967Z,5.50
2019-02-10T20:55:26.306Z,5.60
2019-02-10T20:57:59.174Z,5.50
2019-02-10T21:00:29.672Z,5.50
2019-02-10T21:03:08.606Z,5.50
2019-02-10T21:05:50.858Z,5.50
2019-02-10T21:08:32.534Z,5.50
2019-02-10T21:11:18.918Z,5.50
2019-02-10T21:13:49.299Z,5.50
2019-02-10T21:16:28.346Z,5.50
2019-02-10T21:18:58.563Z,5.40
2019-02-10T21:21:46.816Z,5.40
2019-02-10T21:24:20.120Z,5.50
2019-02-10T21:26:50.193Z,5.50
2019-02-10T21:29:22.970Z,5.20
2019-02-10T21:32:04.844Z,5.40
2019-02-10T21:34:38.132Z,5.40
2019-02-10T21:37:26.082Z,5.50
2019-02-10T21:40:14.001Z,5.50
2019-02-10T21:42:49.781Z,5.50
2019-02-10T21:45:23.021Z,5.40
2019-02-10T21:47:58.810Z,5.40
2019-02-10T21:50:27.635Z,5.30
2019-02-10T21:52:56.134Z,5.30
2019-02-10T21:55:24.658Z,5.20
2019-02-10T21:57:53.102Z,5.20
2019-02-10T22:00:22.966Z,5.20
2019-02-10T22:02:51.563Z,5.10
2019-02-10T22:05:19.983Z,4.90
2019-02-10T22:07:48.414Z,4.80
2019-02-10T22:10:16.835Z,4.70
2019-02-10T22:12:45.370Z,4.70
2019-02-10T22:15:13.863Z,4.60
2019-02-10T22:17:42.561Z,4.60
2019-02-10T22:20:12.126Z,4.60
2019-02-10T22:22:41.321Z,4.50
2019-02-10T22:25:11.282Z,4.50
2019-02-10T22:27:39.731Z,4.50
2019-02-10T22:30:11.482Z,4.50
2019-02-10T22:32:39.932Z,4.60
2019-02-10T22:35:08.442Z,4.60
2019-02-10T22:37:36.889Z,4.60
2019-02-10T22:40:07.259Z,4.60
2019-02-10T22:42:35.709Z,4.60
2019-02-10T22:45:06.370Z,4.60
2019-02-10T22:47:35.072Z,4.50
2019-02-10T22:50:04.367Z,4.50
2019-02-10T22:52:32.802Z,4.50
2019-02-10T22:55:01.245Z,4.60
2019-02-10T22:57:29.667Z,4.60
2019-02-10T22:59:58.095Z,4.50
2019-02-10T23:02:26.549Z,4.50
2019-02-10T23:04:55.279Z,4.50
2019-02-10T23:07:24.067Z,4.50
2019-02-10T23:09:52.581Z,4.50
2019-02-10T23:12:21.034Z,4.60
2019-02-10T23:14:49.490Z,4.60
2019-02-10T23:17:18.770Z,4.60
2019-02-10T23:19:47.191Z,4.60
2019-02-10T23:22:15.638Z,4.60
2019-02-10T23:24:44.210Z,4.60
2019-02-10T23:27:12.694Z,4.70
2019-02-10T23:29:41.142Z,4.60
2019-02-10T23:32:09.621Z,4.60
2019-02-10T23:34:38.039Z,4.60
2019-02-10T23:37:06.533Z,4.70
2019-02-10T23:39:34.970Z,4.70
2019-02-10T23:42:03.420Z,4.70
2019-02-10T23:44:32.132Z,4.80
2019-02-10T23:47:00.927Z,4.80
2019-02-10T23:49:29.693Z,4.90
2019-02-10T23:51:58.440Z,4.90
2019-02-10T23:54:26.878Z,5.00
2019-02-10T23:56:55.339Z,4.90
2019-02-10T23:59:23.860Z,5.00
